createdAt,value
2018-06-29T00:01:53.113Z,98604.94
2018-06-29T00:04:22.341Z,98609.84
2018-06-29T00:06:51.625Z,98606.86
2018-06-29T00:09:20.833Z,98610.33
2018-06-29T00:11:49.985Z,98374.65
2018-06-29T00:14:19.418Z,98609.74
2018-06-29T00:16:48.617Z,98609.67
2018-06-29T00:19:18.125Z,98602.53
2018-06-29T00:21:47.313Z,98600.65
2018-06-29T00:24:16.738Z,98564.83
2018-06-29T00:26:46.056Z,98599.80
2018-06-29T00:29:15.334Z,98591.87
2018-06-29T00:31:44.664Z,98599.02
2018-06-29T00:34:14.000Z,98596.01
2018-06-29T00:36:43.229Z,98598.61
2018-06-29T00:39:12.488Z,98594.61
2018-06-29T00:41:41.953Z,98596.80
2018-06-29T00:44:11.230Z,98591.85
2018-06-29T00:46:40.450Z,98593.71
2018-06-29T00:49:09.747Z,98597.47
2018-06-29T00:51:39.033Z,98598.55
2018-06-29T00:54:08.264Z,98600.14
2018-06-29T00:56:37.525Z,98604.31
2018-06-29T00:59:06.948Z,98601.00
2018-06-29T01:01:36.113Z,98596.80
2018-06-29T01:04:05.668Z,98595.12
2018-06-29T01:06:34.989Z,98591.01
2018-06-29T01:09:06.455Z,98586.80
2018-06-29T01:11:35.742Z,98593.16
2018-06-29T01:14:05.086Z,98589.63
2018-06-29T01:16:34.291Z,98591.45
2018-06-29T01:19:03.487Z,98595.66
2018-06-29T01:21:32.774Z,98590.92
2018-06-29T01:24:02.515Z,98469.61
2018-06-29T01:26:38.455Z,98596.36
2018-06-29T01:29:07.850Z,98589.41
2018-06-29T01:31:37.034Z,98584.09
2018-06-29T01:34:06.501Z,98584.95
2018-06-29T01:36:35.841Z,98578.21
2018-06-29T01:39:07.598Z,98577.58
2018-06-29T01:41:37.106Z,98578.25
2018-06-29T01:44:06.289Z,98575.53
2018-06-29T01:46:35.492Z,98574.72
2018-06-29T01:49:04.831Z,98578.06
2018-06-29T01:51:34.118Z,98571.67
2018-06-29T01:54:03.524Z,98584.09
2018-06-29T01:56:32.852Z,98581.66
2018-06-29T01:59:02.127Z,98578.58
2018-06-29T02:01:31.374Z,98586.06
2018-06-29T02:04:00.787Z,98543.91
2018-06-29T02:06:30.037Z,98583.91
2018-06-29T02:08:59.318Z,98588.44
2018-06-29T02:11:28.529Z,98583.50
2018-06-29T02:13:57.838Z,98583.80
2018-06-29T02:16:27.278Z,98578.55
2018-06-29T02:18:56.573Z,98564.83
2018-06-29T02:21:25.872Z,98558.37
2018-06-29T02:23:55.567Z,98566.02
2018-06-29T02:26:24.832Z,98569.85
2018-06-29T02:28:54.341Z,98568.14
2018-06-29T02:31:23.617Z,98568.92
2018-06-29T02:33:53.032Z,98575.28
2018-06-29T02:36:22.224Z,98575.91
2018-06-29T02:38:51.381Z,98580.04
2018-06-29T02:41:20.690Z,98577.35
2018-06-29T02:43:49.879Z,98582.84
2018-06-29T02:46:19.119Z,98588.77
2018-06-29T02:48:48.354Z,98578.84
2018-06-29T02:51:17.627Z,98576.54
2018-06-29T02:53:46.822Z,98583.19
2018-06-29T02:56:16.070Z,98584.48
2018-06-29T02:58:45.193Z,98580.84
2018-06-29T03:01:14.435Z,98584.61
2018-06-29T03:03:43.703Z,98576.24
2018-06-29T03:06:13.997Z,98571.96
2018-06-29T03:08:44.059Z,98567.66
2018-06-29T03:11:13.277Z,98563.59
2018-06-29T03:13:42.422Z,98569.98
2018-06-29T03:16:11.616Z,98574.14
2018-06-29T03:18:40.782Z,98384.73
2018-06-29T03:21:10.074Z,98576.89
2018-06-29T03:23:39.620Z,98572.91
2018-06-29T03:26:09.153Z,98574.11
2018-06-29T03:28:38.424Z,98573.98
2018-06-29T03:31:07.641Z,98569.49
2018-06-29T03:33:36.997Z,98566.70
2018-06-29T03:36:06.261Z,98566.00
2018-06-29T03:38:35.484Z,98567.30
2018-06-29T03:41:04.702Z,98566.22
2018-06-29T03:43:33.869Z,98560.61
2018-06-29T03:46:03.348Z,98557.42
2018-06-29T03:48:32.537Z,98559.02
2018-06-29T03:51:01.749Z,98557.94
2018-06-29T03:53:31.057Z,98558.88
2018-06-29T03:56:00.231Z,98559.16
2018-06-29T03:58:29.522Z,98555.56
2018-06-29T04:00:58.673Z,98552.77
2018-06-29T04:03:27.877Z,98557.53
2018-06-29T04:05:57.134Z,98555.52
2018-06-29T04:08:26.519Z,98555.22
2018-06-29T04:10:55.834Z,98556.16
2018-06-29T04:13:25.046Z,98566.13
2018-06-29T04:15:54.332Z,98569.35
2018-06-29T04:18:23.585Z,98566.26
2018-06-29T04:20:52.810Z,98572.12
2018-06-29T04:23:22.091Z,98563.72
2018-06-29T04:25:51.281Z,98565.13
2018-06-29T04:28:20.710Z,98562.07
2018-06-29T04:30:49.831Z,98562.88
2018-06-29T04:33:19.057Z,98560.61
2018-06-29T04:35:48.181Z,98563.42
2018-06-29T04:38:17.428Z,98554.41
2018-06-29T04:40:46.673Z,98555.87
2018-06-29T04:43:15.973Z,98562.82
2018-06-29T04:45:45.491Z,98556.14
2018-06-29T04:48:14.886Z,98561.81
2018-06-29T04:50:44.194Z,98558.44
2018-06-29T04:53:13.864Z,98562.08
2018-06-29T04:55:42.992Z,98560.14
2018-06-29T04:58:12.316Z,98557.81
2018-06-29T05:00:41.763Z,98545.31
2018-06-29T05:03:11.121Z,98541.44
2018-06-29T05:05:40.514Z,98547.16
2018-06-29T05:08:09.803Z,98545.54
2018-06-29T05:10:38.959Z,98547.17
2018-06-29T05:13:08.183Z,98550.25
2018-06-29T05:15:37.793Z,98542.34
2018-06-29T05:18:07.354Z,98549.12
2018-06-29T05:20:36.589Z,98549.02
2018-06-29T05:23:06.112Z,98557.22
2018-06-29T05:25:35.637Z,98552.37
2018-06-29T05:28:04.865Z,98544.61
2018-06-29T05:30:34.064Z,98546.77
2018-06-29T05:33:03.318Z,98546.08
2018-06-29T05:35:32.617Z,98546.42
2018-06-29T05:38:01.960Z,98540.54
2018-06-29T05:40:31.606Z,98548.64
2018-06-29T05:43:01.654Z,98548.05
2018-06-29T05:45:31.025Z,98544.59
2018-06-29T05:48:00.173Z,98548.47
2018-06-29T05:50:29.541Z,98548.87
2018-06-29T05:52:58.698Z,98553.28
2018-06-29T05:55:27.938Z,98547.94
2018-06-29T05:57:57.217Z,98553.20
2018-06-29T06:00:26.721Z,98545.95
2018-06-29T06:02:55.896Z,98548.78
2018-06-29T06:05:25.320Z,98539.76
2018-06-29T06:07:54.634Z,98542.20
2018-06-29T06:10:23.996Z,98542.37
2018-06-29T06:12:53.319Z,98546.48
2018-06-29T06:15:23.025Z,98544.77
2018-06-29T06:17:52.352Z,98556.83
2018-06-29T06:20:21.708Z,98550.71
2018-06-29T06:22:50.868Z,98552.50
2018-06-29T06:25:20.013Z,98552.42
2018-06-29T06:27:49.190Z,98550.63
2018-06-29T06:30:18.479Z,98553.84
2018-06-29T06:32:47.702Z,98552.94
2018-06-29T06:35:16.909Z,98544.72
2018-06-29T06:37:46.117Z,98548.11
2018-06-29T06:40:15.311Z,98547.64
2018-06-29T06:42:44.504Z,98552.81
2018-06-29T06:45:13.661Z,98551.03
2018-06-29T06:47:42.902Z,98553.80
2018-06-29T06:50:12.050Z,98550.81
2018-06-29T06:52:41.196Z,98557.57
2018-06-29T06:55:10.502Z,98558.72
2018-06-29T06:57:39.923Z,98559.91
2018-06-29T07:00:09.194Z,98557.95
2018-06-29T07:02:38.397Z,98558.31
2018-06-29T07:05:07.795Z,98559.05
2018-06-29T07:07:37.102Z,98557.34
2018-06-29T07:10:06.406Z,98564.93
2018-06-29T07:12:35.659Z,98568.80
2018-06-29T07:15:05.328Z,98568.14
2018-06-29T07:17:34.676Z,98572.67
2018-06-29T07:20:05.405Z,98570.44
2018-06-29T07:22:34.858Z,98572.89
2018-06-29T07:25:04.209Z,98577.73
2018-06-29T07:27:33.967Z,98575.58
2018-06-29T07:30:03.484Z,98575.80
2018-06-29T07:32:32.775Z,98575.66
2018-06-29T07:35:02.075Z,98575.70
2018-06-29T07:37:31.508Z,98580.59
2018-06-29T07:40:00.700Z,98576.34
2018-06-29T07:42:29.975Z,98574.89
2018-06-29T07:44:59.374Z,98578.23
2018-06-29T07:47:29.146Z,98579.94
2018-06-29T07:49:58.430Z,98571.05
2018-06-29T07:52:27.667Z,98576.69
2018-06-29T07:54:56.984Z,98569.91
2018-06-29T07:57:26.182Z,98573.14
2018-06-29T07:59:55.481Z,98566.25
2018-06-29T08:02:24.661Z,98575.78
2018-06-29T08:04:54.406Z,98570.78
2018-06-29T08:07:23.859Z,98557.88
2018-06-29T08:09:53.456Z,98558.69
2018-06-29T08:12:22.780Z,98554.92
2018-06-29T08:14:52.131Z,98561.11
2018-06-29T08:17:21.396Z,98556.02
2018-06-29T08:19:51.023Z,98551.69
2018-06-29T08:22:20.277Z,98541.34
2018-06-29T08:25:01.014Z,98537.66
2018-06-29T08:27:30.268Z,98531.82
2018-06-29T08:29:59.519Z,98535.78
2018-06-29T08:32:28.773Z,98528.30
2018-06-29T08:34:58.018Z,98522.45
2018-06-29T08:37:27.255Z,98523.89
2018-06-29T08:39:56.690Z,98530.57
2018-06-29T08:42:25.917Z,98527.48
2018-06-29T08:44:55.274Z,98515.48
2018-06-29T08:47:24.687Z,98518.24
2018-06-29T08:49:54.011Z,98517.77
2018-06-29T08:52:23.241Z,98507.42
2018-06-29T08:54:52.479Z,98519.02
2018-06-29T08:57:22.037Z,98504.11
2018-06-29T08:59:51.663Z,98501.27
2018-06-29T09:02:20.950Z,98506.64
2018-06-29T09:04:50.402Z,98505.56
2018-06-29T09:07:19.677Z,98500.90
2018-06-29T09:09:48.972Z,98501.55
2018-06-29T09:12:18.270Z,98504.22
2018-06-29T09:14:47.578Z,98507.45
2018-06-29T09:17:16.967Z,98499.92
2018-06-29T09:19:46.293Z,98498.08
2018-06-29T09:22:15.683Z,98496.77
2018-06-29T09:24:45.178Z,98497.92
2018-06-29T09:27:14.491Z,98493.47
2018-06-29T09:29:45.001Z,98496.88
2018-06-29T09:32:14.336Z,98489.60
2018-06-29T09:34:43.699Z,98491.13
2018-06-29T09:37:13.015Z,98491.70
2018-06-29T09:39:42.518Z,98485.43
2018-06-29T09:42:11.922Z,98485.80
2018-06-29T09:44:41.364Z,98481.97
2018-06-29T09:47:10.728Z,98481.41
2018-06-29T09:49:40.150Z,98477.53
2018-06-29T09:52:09.342Z,98472.75
2018-06-29T09:54:38.728Z,98474.20
2018-06-29T09:57:07.938Z,98468.46
2018-06-29T09:59:37.352Z,98472.70
2018-06-29T10:02:06.833Z,98462.25
2018-06-29T10:04:36.146Z,98472.67
2018-06-29T10:07:05.718Z,98468.78
2018-06-29T10:09:35.526Z,98460.87
2018-06-29T10:12:04.788Z,98458.36
2018-06-29T10:14:34.092Z,98456.97
2018-06-29T10:17:03.275Z,98458.73
2018-06-29T10:19:32.594Z,98451.74
2018-06-29T10:22:01.838Z,98451.09
2018-06-29T10:24:31.080Z,98452.56
2018-06-29T10:27:00.390Z,98451.67
2018-06-29T10:29:29.764Z,98451.52
2018-06-29T10:31:59.089Z,98445.89
2018-06-29T10:34:28.333Z,98444.11
2018-06-29T10:36:57.588Z,98442.00
2018-06-29T10:39:26.835Z,98440.84
2018-06-29T10:41:56.090Z,98440.52
2018-06-29T10:44:25.574Z,98444.24
2018-06-29T10:46:54.786Z,98438.25
2018-06-29T10:49:23.994Z,98438.35
2018-06-29T10:51:53.307Z,98433.09
2018-06-29T10:54:22.693Z,98432.94
2018-06-29T10:56:51.906Z,98430.17
2018-06-29T10:59:21.145Z,98432.95
2018-06-29T11:01:50.419Z,98426.42
2018-06-29T11:04:20.501Z,98421.59
2018-06-29T11:06:49.795Z,98414.36
2018-06-29T11:09:19.197Z,98416.39
2018-06-29T11:11:48.533Z,98414.67
2018-06-29T11:14:17.783Z,98413.11
2018-06-29T11:16:46.987Z,98400.33
2018-06-29T11:19:16.208Z,98400.45
2018-06-29T11:21:45.470Z,98405.92
2018-06-29T11:24:14.742Z,98402.48
2018-06-29T11:26:43.981Z,98405.97
2018-06-29T11:29:13.347Z,98404.41
2018-06-29T11:31:42.551Z,98408.50
2018-06-29T11:34:11.868Z,98398.27
2018-06-29T11:36:41.095Z,98398.56
2018-06-29T11:39:12.855Z,98384.25
2018-06-29T11:41:42.740Z,98385.96
2018-06-29T11:44:12.815Z,98385.30
2018-06-29T11:46:41.990Z,98388.13
2018-06-29T11:49:11.351Z,98383.58
2018-06-29T11:51:40.569Z,98378.87
2018-06-29T11:54:09.923Z,98376.92
2018-06-29T11:56:39.413Z,98371.10
2018-06-29T11:59:08.831Z,98372.31
2018-06-29T12:01:38.572Z,98376.58
2018-06-29T12:04:07.851Z,98362.69
2018-06-29T12:06:37.239Z,98362.08
2018-06-29T12:09:08.935Z,98351.80
2018-06-29T12:11:38.117Z,98354.57
2018-06-29T12:14:08.526Z,98348.66
2018-06-29T12:16:37.811Z,98347.31
2018-06-29T12:19:07.080Z,98348.43
2018-06-29T12:21:36.564Z,98342.90
2018-06-29T12:24:05.992Z,98343.81
2018-06-29T12:26:35.220Z,98345.65
2018-06-29T12:29:04.562Z,98340.27
2018-06-29T12:31:34.091Z,98342.60
2018-06-29T12:34:03.282Z,98337.93
2018-06-29T12:36:32.628Z,98327.45
2018-06-29T12:39:01.862Z,98325.20
2018-06-29T12:41:31.208Z,98327.15
2018-06-29T12:44:00.594Z,98331.47
2018-06-29T12:46:29.845Z,98326.79
2018-06-29T12:48:59.139Z,98315.90
2018-06-29T12:51:28.406Z,98311.36
2018-06-29T12:53:57.619Z,98316.42
2018-06-29T12:56:26.905Z,98314.90
2018-06-29T12:58:56.159Z,98307.62
2018-06-29T13:01:25.422Z,98308.14
2018-06-29T13:03:54.714Z,98302.66
2018-06-29T13:06:24.061Z,98305.63
2018-06-29T13:08:53.297Z,98303.03
2018-06-29T13:11:22.615Z,98295.55
2018-06-29T13:13:51.896Z,98291.32
2018-06-29T13:16:21.101Z,98284.65
2018-06-29T13:18:50.358Z,98287.88
2018-06-29T13:21:19.605Z,98278.03
2018-06-29T13:23:48.894Z,98282.06
2018-06-29T13:26:18.078Z,98279.81
2018-06-29T13:28:47.295Z,98277.80
2018-06-29T13:31:16.610Z,98271.45
2018-06-29T13:33:45.788Z,98274.00
2018-06-29T13:36:15.475Z,98268.75
2018-06-29T13:38:44.928Z,98252.38
2018-06-29T13:41:14.211Z,98259.38
2018-06-29T13:43:43.708Z,98253.53
2018-06-29T13:46:13.100Z,98258.36
2018-06-29T13:48:42.402Z,98259.25
2018-06-29T13:51:11.598Z,98257.03
2018-06-29T13:53:41.046Z,98254.70
2018-06-29T13:56:10.442Z,98251.72
2018-06-29T13:58:39.658Z,98244.70
2018-06-29T14:01:08.907Z,98241.98
2018-06-29T14:03:38.090Z,98241.97
2018-06-29T14:06:07.397Z,98236.50
2018-06-29T14:08:36.667Z,98233.75
2018-06-29T14:11:05.893Z,98240.37
2018-06-29T14:13:35.081Z,98237.90
2018-06-29T14:16:04.397Z,98227.59
2018-06-29T14:18:33.651Z,98226.25
2018-06-29T14:21:02.885Z,98230.95
2018-06-29T14:23:32.076Z,98222.88
2018-06-29T14:26:01.303Z,98221.23
2018-06-29T14:28:30.694Z,98218.72
2018-06-29T14:30:59.978Z,98215.45
2018-06-29T14:33:29.155Z,98221.25
2018-06-29T14:35:58.591Z,98215.09
2018-06-29T14:38:27.879Z,98209.96
2018-06-29T14:40:57.146Z,98204.23
2018-06-29T14:43:26.377Z,98211.44
2018-06-29T14:45:55.694Z,98203.16
2018-06-29T14:48:24.946Z,98193.70
2018-06-29T14:50:54.216Z,98197.13
2018-06-29T14:53:23.631Z,98195.72
2018-06-29T14:55:52.913Z,98191.63
2018-06-29T14:58:22.192Z,98186.77
2018-06-29T15:00:51.576Z,98181.29
2018-06-29T15:03:20.719Z,98183.34
2018-06-29T15:05:50.017Z,98178.34
2018-06-29T15:08:19.229Z,98181.30
2018-06-29T15:10:48.414Z,98176.34
2018-06-29T15:13:17.677Z,98174.07
2018-06-29T15:15:47.859Z,98181.58
2018-06-29T15:18:17.095Z,98174.53
2018-06-29T15:20:46.430Z,98173.25
2018-06-29T15:23:15.646Z,98177.10
2018-06-29T15:25:44.878Z,98171.64
2018-06-29T15:28:14.105Z,98165.05
2018-06-29T15:30:43.722Z,98166.90
2018-06-29T15:33:12.985Z,98172.16
2018-06-29T15:35:42.105Z,98165.75
2018-06-29T15:38:11.257Z,98164.84
2018-06-29T15:40:40.457Z,98170.27
2018-06-29T15:43:10.730Z,98163.87
2018-06-29T15:45:39.950Z,98162.27
2018-06-29T15:48:09.422Z,98163.88
2018-06-29T15:50:38.604Z,98161.60
2018-06-29T15:53:08.302Z,98162.15
2018-06-29T15:55:37.461Z,98162.05
2018-06-29T15:58:07.049Z,98162.86
2018-06-29T16:00:36.249Z,98163.88
2018-06-29T16:03:05.674Z,98164.30
2018-06-29T16:05:34.881Z,98159.82
2018-06-29T16:08:04.143Z,98161.23
2018-06-29T16:10:33.280Z,98159.51
2018-06-29T16:13:02.526Z,98160.44
2018-06-29T16:15:31.713Z,98152.75
2018-06-29T16:18:00.917Z,98152.03
2018-06-29T16:20:30.137Z,98159.89
2018-06-29T16:22:59.414Z,98154.91
2018-06-29T16:25:28.807Z,98155.54
2018-06-29T16:27:57.985Z,98156.75
2018-06-29T16:30:27.250Z,98147.02
2018-06-29T16:32:56.513Z,98148.80
2018-06-29T16:35:25.795Z,98144.41
2018-06-29T16:37:55.100Z,98144.22
2018-06-29T16:40:24.498Z,98144.62
2018-06-29T16:42:53.889Z,98152.42
2018-06-29T16:45:23.129Z,98146.88
2018-06-29T16:47:52.944Z,98149.09
2018-06-29T16:50:22.232Z,98153.27
2018-06-29T16:52:51.680Z,98149.93
2018-06-29T16:55:21.236Z,98151.11
2018-06-29T16:57:50.890Z,98153.05
2018-06-29T17:00:20.337Z,98156.50
2018-06-29T17:02:49.749Z,98150.94
2018-06-29T17:05:19.031Z,98150.70
2018-06-29T17:07:48.289Z,98152.28
2018-06-29T17:10:17.564Z,98154.75
2018-06-29T17:12:47.547Z,98153.73
2018-06-29T17:15:16.803Z,98156.27
2018-06-29T17:17:46.129Z,98148.59
2018-06-29T17:20:15.561Z,98149.22
2018-06-29T17:22:45.791Z,98150.80
2018-06-29T17:25:15.027Z,98153.08
2018-06-29T17:27:44.600Z,98155.41
2018-06-29T17:30:13.821Z,98153.31
2018-06-29T17:32:43.152Z,98156.08
2018-06-29T17:35:12.451Z,98148.97
2018-06-29T17:37:41.648Z,98153.84
2018-06-29T17:40:10.806Z,98152.97
2018-06-29T17:42:40.050Z,98156.69
2018-06-29T17:45:09.214Z,98155.13
2018-06-29T17:47:38.589Z,98157.05
2018-06-29T17:50:07.953Z,98157.88
2018-06-29T17:52:37.194Z,98161.09
2018-06-29T17:55:06.634Z,98155.30
2018-06-29T17:57:35.822Z,98162.13
2018-06-29T18:00:05.837Z,98158.80
2018-06-29T18:02:35.044Z,98161.52
2018-06-29T18:05:04.353Z,98164.49
2018-06-29T18:07:33.653Z,98166.94
2018-06-29T18:10:02.835Z,98163.84
2018-06-29T18:12:32.980Z,98169.92
2018-06-29T18:15:02.589Z,98163.48
2018-06-29T18:17:31.995Z,98171.28
2018-06-29T18:20:01.242Z,98171.27
2018-06-29T18:22:30.429Z,98172.59
2018-06-29T18:25:05.045Z,98179.06
2018-06-29T18:27:34.225Z,98174.70
2018-06-29T18:30:03.569Z,98176.50
2018-06-29T18:32:32.904Z,98175.24
2018-06-29T18:35:02.197Z,98178.83
2018-06-29T18:37:31.425Z,98185.11
2018-06-29T18:40:00.595Z,98183.86
2018-06-29T18:42:30.101Z,98176.16
2018-06-29T18:44:59.270Z,98183.21
2018-06-29T18:47:28.494Z,98181.47
2018-06-29T18:49:57.705Z,98191.34
2018-06-29T18:52:26.988Z,98187.94
2018-06-29T18:54:56.318Z,98193.64
2018-06-29T18:57:25.565Z,98189.45
2018-06-29T18:59:54.885Z,98192.98
2018-06-29T19:02:24.176Z,98199.48
2018-06-29T19:04:53.569Z,98194.38
2018-06-29T19:07:22.917Z,98198.72
2018-06-29T19:09:52.169Z,98196.63
2018-06-29T19:12:21.328Z,98198.72
2018-06-29T19:14:50.590Z,98197.08
2018-06-29T19:17:19.759Z,98205.17
2018-06-29T19:19:48.983Z,98201.68
2018-06-29T19:22:18.146Z,98203.55
2018-06-29T19:24:47.375Z,98204.27
2018-06-29T19:27:16.567Z,98208.03
2018-06-29T19:29:45.899Z,98213.23
2018-06-29T19:32:15.171Z,98213.81
2018-06-29T19:34:44.559Z,98213.88
2018-06-29T19:37:13.893Z,98215.34
2018-06-29T19:39:43.238Z,98217.02
2018-06-29T19:42:12.378Z,98214.83
2018-06-29T19:44:41.769Z,98216.44
2018-06-29T19:47:11.055Z,98146.84
2018-06-29T19:49:40.495Z,98219.22
2018-06-29T19:52:09.790Z,98217.63
2018-06-29T19:54:39.046Z,98216.82
2018-06-29T19:57:08.251Z,98220.59
2018-06-29T19:59:37.926Z,98225.74
2018-06-29T20:02:07.253Z,98222.83
2018-06-29T20:04:36.505Z,98224.98
2018-06-29T20:07:05.945Z,98227.14
2018-06-29T20:09:35.123Z,98227.70
2018-06-29T20:12:04.469Z,98228.22
2018-06-29T20:14:33.687Z,98227.69
2018-06-29T20:17:02.933Z,98231.47
2018-06-29T20:19:32.231Z,98236.55
2018-06-29T20:22:01.558Z,98232.23
2018-06-29T20:24:30.728Z,98241.37
2018-06-29T20:26:59.896Z,98234.63
2018-06-29T20:29:29.173Z,98231.63
2018-06-29T20:31:58.460Z,98237.52
2018-06-29T20:34:27.657Z,98245.02
2018-06-29T20:36:57.490Z,98242.02
2018-06-29T20:39:26.876Z,98244.72
2018-06-29T20:41:56.177Z,98247.90
2018-06-29T20:44:25.516Z,98254.05
2018-06-29T20:46:54.626Z,98248.42
2018-06-29T20:49:23.871Z,98248.58
2018-06-29T20:51:53.526Z,98253.06
2018-06-29T20:54:22.879Z,98255.45
2018-06-29T20:56:52.193Z,98256.50
2018-06-29T20:59:21.491Z,98261.04
2018-06-29T21:01:51.918Z,98264.25
2018-06-29T21:04:21.218Z,98269.87
2018-06-29T21:06:50.361Z,98263.44
2018-06-29T21:09:19.545Z,98270.17
2018-06-29T21:11:48.809Z,98274.12
2018-06-29T21:14:18.101Z,98273.17
2018-06-29T21:16:47.317Z,98280.93
2018-06-29T21:19:16.757Z,98287.38
2018-06-29T21:21:46.829Z,98291.84
2018-06-29T21:24:16.024Z,98287.66
2018-06-29T21:26:45.222Z,98289.78
2018-06-29T21:29:14.606Z,98294.69
2018-06-29T21:31:43.970Z,98299.42
2018-06-29T21:34:13.208Z,98298.56
2018-06-29T21:36:42.509Z,98296.33
2018-06-29T21:39:12.509Z,98292.19
2018-06-29T21:41:41.704Z,98295.70
2018-06-29T21:44:10.891Z,98300.94
2018-06-29T21:46:40.192Z,98300.65
2018-06-29T21:49:09.314Z,98301.28
2018-06-29T21:51:38.653Z,98310.38
2018-06-29T21:54:07.792Z,98303.84
2018-06-29T21:56:37.217Z,98307.08
2018-06-29T21:59:06.442Z,98304.59
2018-06-29T22:01:35.797Z,98307.05
2018-06-29T22:04:04.937Z,98305.64
2018-06-29T22:06:34.248Z,98309.87
2018-06-29T22:09:04.081Z,98307.90
2018-06-29T22:11:33.322Z,98309.81
2018-06-29T22:14:02.618Z,98310.29
2018-06-29T22:16:31.857Z,98312.84
2018-06-29T22:19:01.122Z,98309.84
2018-06-29T22:21:30.465Z,98312.67
2018-06-29T22:23:59.983Z,98312.55
2018-06-29T22:26:29.447Z,98315.80
2018-06-29T22:28:58.725Z,98314.55
2018-06-29T22:31:27.925Z,98314.89
2018-06-29T22:33:57.329Z,98314.69
2018-06-29T22:36:26.881Z,98322.63
2018-06-29T22:41:42.519Z,98325.70
2018-06-29T22:44:11.717Z,98327.23
2018-06-29T22:46:40.965Z,98331.77
2018-06-29T22:49:10.014Z,98332.81
2018-06-29T22:51:39.213Z,98134.55
2018-06-29T22:54:08.650Z,98339.15
2018-06-29T22:56:37.818Z,98344.92
2018-06-29T22:59:07.029Z,98344.34
2018-06-29T23:01:36.231Z,98346.83
2018-06-29T23:06:50.895Z,98347.36
2018-06-29T23:09:19.938Z,98353.73
2018-06-29T23:11:48.956Z,98359.81
2018-06-29T23:14:18.022Z,98354.00
2018-06-29T23:16:47.113Z,98356.55
2018-06-29T23:19:16.289Z,98355.05
2018-06-29T23:21:45.598Z,98355.08
2018-06-29T23:24:15.037Z,98357.52
2018-06-29T23:26:44.198Z,98360.11
2018-06-29T23:29:13.353Z,98371.32
2018-06-29T23:31:42.605Z,98368.88
2018-06-29T23:34:11.802Z,98371.84
2018-06-29T23:36:41.016Z,98376.70
2018-06-29T23:39:11.280Z,98376.22
2018-06-29T23:41:40.896Z,98375.49
2018-06-29T23:44:10.074Z,98390.97
2018-06-29T23:46:39.297Z,98385.48
2018-06-29T23:49:08.538Z,98384.99
2018-06-29T23:51:37.948Z,98378.64
2018-06-29T23:54:07.217Z,98381.12
2018-06-29T23:56:36.357Z,98383.43
2018-06-29T23:59:05.685Z,98384.88
